< < Back
Terminal Aerodrome Forecast


Current Version              Previous Versions:   1  2  3  4  5  6  7  8  9  

Terminal Aerodrome Forecast

877
FTUS42 KMLB 020500
TAFMCO
TAF
KMCO 020524Z 0206/0306 VRB02KT P6SM FEW150
     FM021400 02005KT P6SM FEW060 BKN120
     FM022000 05008KT P6SM SCT120 BKN250
     FM030000 05003KT P6SM FEW120 SCT250=



Latest METAR

490
SAUS70 KWBC 011200 RRX
MTRMCO
METAR KMCO 021153Z 23003KT 10SM FEW020 FEW100 FEW250 23/23 A3002 RMK AO2
SLP165 70057 T02330233 10239 20233 53014


USA.gov is the U.S. government's official web portal to all federal, state and local government web resources and services.